Time;durP1;ratioP1;P1;durP2;ratioP2;P2;SDS_P1;SDS_P2;PMS_P1;PMS_P2;Temp;Humidity;BMP_temperature;BMP_pressure;BME280_temperature;BME280_humidity;BME280_pressure;Samples;Min_cycle;Max_cycle;Signal;HPM_P1;HPM_P2
2022/08/29 00:01:08;;;;;;;8.50;7.40;;;20.20;99.90;;;;;;5073051;28;20970;-55
2022/08/29 00:03:36;;;;;;;7.00;6.30;;;;;;;;;;5073038;28;20511;-55
2022/08/29 00:06:04;;;;;;;7.93;6.60;;;19.70;99.90;;;;;;5073065;28;20527;-56
2022/08/29 00:08:31;;;;;;;7.50;6.70;;;19.70;99.90;;;;;;5072691;28;20455;-56
2022/08/29 00:10:59;;;;;;;8.37;7.57;;;19.50;99.90;;;;;;5074172;28;20476;-55
2022/08/29 00:13:26;;;;;;;7.90;7.20;;;19.60;99.90;;;;;;5076903;28;20448;-56
2022/08/29 00:15:53;;;;;;;8.13;6.80;;;19.70;99.90;;;;;;5076557;28;20560;-55
2022/08/29 00:18:21;;;;;;;7.40;6.63;;;20.00;99.90;;;;;;5076616;28;20444;-55
2022/08/29 00:20:50;;;;;;;6.83;6.23;;;20.30;99.90;;;;;;5076409;28;20464;-56
2022/08/29 00:23:18;;;;;;;7.70;5.70;;;20.40;99.90;;;;;;5076355;28;20947;-56
2022/08/29 00:25:45;;;;;;;7.90;7.10;;;20.10;99.90;;;;;;5076794;28;20865;-55
2022/08/29 00:28:12;;;;;;;10.20;7.27;;;19.90;99.90;;;;;;5076772;28;20859;-55
2022/08/29 00:30:40;;;;;;;7.97;7.27;;;19.70;99.90;;;;;;5076162;28;20547;-55
2022/08/29 00:33:07;;;;;;;7.63;6.97;;;19.60;99.90;;;;;;5076135;28;20452;-55
2022/08/29 00:35:37;;;;;;;8.80;7.33;;;19.50;99.90;;;;;;5076603;28;20447;-56
2022/08/29 00:38:08;;;;;;;7.93;7.23;;;19.30;99.90;;;;;;5076109;28;20474;-55
2022/08/29 00:40:39;;;;;;;9.20;8.00;;;19.60;99.90;;;;;;5075965;28;20555;-55
2022/08/29 00:43:07;;;;;;;7.67;7.03;;;19.80;99.90;;;;;;5076498;28;20752;-55
2022/08/29 00:45:35;;;;;;;7.87;7.17;;;20.00;99.90;;;;;;5075696;28;20986;-55
2022/08/29 00:48:07;;;;;;;7.57;6.87;;;19.70;99.90;;;;;;5075826;28;20814;-55
2022/08/29 00:50:38;;;;;;;8.60;7.30;;;19.60;99.90;;;;;;5076143;28;20471;-56
2022/08/29 00:53:10;;;;;;;7.63;6.93;;;19.30;99.90;;;;;;5076358;28;20762;-55
2022/08/29 00:55:40;;;;;;;8.67;7.67;;;19.30;99.90;;;;;;5075861;28;20424;-55
2022/08/29 00:58:12;;;;;;;8.20;7.50;;;19.40;99.90;;;;;;5075773;28;20452;-55
2022/08/29 01:00:40;;;;;;;8.70;7.87;;;19.60;99.90;;;;;;5075650;28;20474;-55
2022/08/29 01:03:08;;;;;;;9.07;7.73;;;19.70;99.90;;;;;;5076017;28;20547;-55
2022/08/29 01:05:36;;;;;;;8.40;7.00;;;19.90;99.90;;;;;;5075939;28;20558;-55
2022/08/29 01:08:04;;;;;;;7.60;6.93;;;20.20;99.90;;;;;;5075940;28;20448;-56
2022/08/29 01:13:38;;;;;;;9.97;7.10;;;20.40;99.90;;;;;;5033574;28;20426;-57
2022/08/29 01:16:07;;;;;;;10.83;7.33;;;19.80;99.90;;;;;;5033892;28;20525;-56
2022/08/29 01:18:37;;;;;;;7.67;6.97;;;19.70;99.90;;;;;;5053902;28;20441;-55
2022/08/29 01:21:13;;;;;;;8.27;7.47;;;19.20;99.90;;;;;;5075606;28;20467;-55
2022/08/29 01:23:46;;;;;;;10.53;8.30;;;19.20;99.90;;;;;;5075241;28;20424;-55
2022/08/29 01:26:14;;;;;;;9.03;7.90;;;19.10;99.90;;;;;;5075504;28;20425;-55
2022/08/29 01:28:44;;;;;;;7.63;6.70;;;19.00;99.90;;;;;;5075667;28;20811;-56
2022/08/29 01:31:16;;;;;;;8.50;7.77;;;19.00;99.90;;;;;;5075114;28;20551;-55
2022/08/29 01:33:45;;;;;;;9.00;8.10;;;19.00;99.90;;;;;;5074968;28;20429;-55
2022/08/29 01:36:16;;;;;;;7.93;7.13;;;18.90;99.90;;;;;;5075225;28;20540;-55
2022/08/29 01:38:43;;;;;;;9.53;8.47;;;18.80;99.90;;;;;;5075399;28;20504;-55
2022/08/29 01:41:11;;;;;;;10.10;7.70;;;19.00;99.90;;;;;;5075021;28;20460;-55
2022/08/29 01:43:43;;;;;;;9.03;8.10;;;19.00;99.90;;;;;;5074967;28;20451;-55
2022/08/29 01:46:13;;;;;;;7.80;6.40;;;19.20;99.90;;;;;;5074993;28;20482;-55
2022/08/29 01:48:43;;;;;;;9.00;8.10;;;19.20;99.90;;;;;;5075122;28;20448;-56
2022/08/29 01:51:10;;;;;;;8.40;7.60;;;19.10;99.90;;;;;;5074748;28;20460;-56
2022/08/29 01:53:38;;;;;;;8.10;7.40;;;18.80;99.90;;;;;;5074886;28;20993;-55
2022/08/29 01:56:10;;;;;;;8.53;7.73;;;18.80;99.90;;;;;;5074997;28;20539;-55
2022/08/29 01:58:38;;;;;;;8.90;7.17;;;18.90;99.90;;;;;;5074696;28;20421;-55
2022/08/29 02:01:07;;;;;;;6.60;5.97;;;19.10;99.90;;;;;;5074644;28;20475;-55
2022/08/29 02:03:34;;;;;;;9.40;7.30;;;19.40;99.90;;;;;;5074614;28;20536;-55
2022/08/29 02:06:02;;;;;;;8.40;7.60;;;19.30;99.90;;;;;;5074693;28;20531;-55
2022/08/29 02:08:29;;;;;;;9.00;8.20;;;19.00;99.90;;;;;;5074704;28;20531;-55
2022/08/29 02:10:57;;;;;;;9.33;7.97;;;19.00;99.90;;;;;;5074493;28;20472;-55
2022/08/29 02:13:25;;;;;;;9.47;7.90;;;19.20;99.90;;;;;;5074309;28;20448;-56
2022/08/29 02:15:52;;;;;;;9.40;7.70;;;19.50;99.90;;;;;;5074291;28;20444;-55
2022/08/29 02:18:21;;;;;;;8.03;7.23;;;19.30;99.90;;;;;;5074673;28;20460;-55
2022/08/29 02:20:48;;;;;;;8.83;7.77;;;18.80;99.90;;;;;;5074395;28;20469;-55
2022/08/29 02:23:15;;;;;;;9.43;7.50;;;18.70;99.90;;;;;;5074126;28;20998;-55
2022/08/29 02:25:42;;;;;;;8.50;7.60;;;18.70;99.90;;;;;;5074160;28;20476;-55
2022/08/29 02:28:11;;;;;;;9.07;8.17;;;18.90;99.90;;;;;;5073999;28;20506;-55
2022/08/29 02:30:38;;;;;;;10.20;7.73;;;19.00;99.90;;;;;;5074219;28;20483;-56
2022/08/29 02:33:07;;;;;;;8.80;8.00;;;18.80;99.90;;;;;;5073468;28;20506;-55
2022/08/29 02:35:37;;;;;;;8.67;7.87;;;18.60;99.90;;;;;;5073748;28;20531;-56
2022/08/29 02:38:05;;;;;;;10.00;8.50;;;18.60;99.90;;;;;;5073920;28;20436;-55
2022/08/29 02:40:32;;;;;;;8.67;7.77;;;18.70;99.90;;;;;;5073951;28;20479;-55
2022/08/29 02:43:00;;;;;;;8.43;7.60;;;18.80;99.90;;;;;;5073936;28;20472;-55
2022/08/29 02:45:28;;;;;;;7.47;6.70;;;19.00;99.90;;;;;;5073409;28;20497;-55
2022/08/29 02:47:55;;;;;;;8.43;7.40;;;18.70;99.90;;;;;;5073655;28;20475;-55
2022/08/29 02:50:24;;;;;;;8.30;7.60;;;18.30;99.90;;;;;;5073649;28;20961;-56
2022/08/29 02:52:53;;;;;;;11.90;7.93;;;18.00;99.90;;;;;;5073611;28;20483;-55
2022/08/29 02:55:22;;;;;;;8.83;7.93;;;18.10;99.90;;;;;;5073774;28;20440;-56
2022/08/29 02:57:49;;;;;;;10.17;8.27;;;18.20;99.90;;;;;;5073968;28;20452;-55
2022/08/29 03:00:20;;;;;;;9.80;7.80;;;18.20;99.90;;;;;;5073737;28;20476;-55
2022/08/29 03:02:48;;;;;;;8.70;7.60;;;18.30;99.90;;;;;;5073430;28;20478;-55
2022/08/29 03:05:15;;;;;;;9.17;8.37;;;18.40;99.90;;;;;;5073746;28;20487;-55
2022/08/29 03:07:43;;;;;;;8.67;7.60;;;18.50;99.90;;;;;;5073766;28;20488;-55
2022/08/29 03:10:12;;;;;;;9.17;8.27;;;18.50;99.90;;;;;;5073562;28;20940;-55
2022/08/29 03:12:39;;;;;;;8.37;7.43;;;18.60;99.90;;;;;;5073825;28;20529;-55
2022/08/29 03:15:08;;;;;;;9.43;7.90;;;18.60;99.90;;;;;;5073709;28;20474;-56
2022/08/29 03:17:36;;;;;;;8.53;7.60;;;18.40;99.90;;;;;;5073554;28;20475;-56
2022/08/29 03:20:04;;;;;;;7.73;6.93;;;18.50;99.90;;;;;;5073506;28;20776;-55
2022/08/29 03:22:33;;;;;;;8.53;7.77;;;18.80;99.90;;;;;;5073227;28;20934;-55
2022/08/29 03:25:01;;;;;;;8.57;7.50;;;18.60;99.90;;;;;;5073048;28;20476;-55
2022/08/29 03:27:30;;;;;;;11.20;6.93;;;18.40;99.90;;;;;;5073286;28;20448;-55
2022/08/29 03:29:57;;;;;;;8.00;7.20;;;18.30;99.90;;;;;;5073589;28;20495;-55
2022/08/29 03:32:26;;;;;;;8.63;7.60;;;18.20;99.90;;;;;;5072971;28;20504;-55
2022/08/29 03:34:53;;;;;;;7.47;6.57;;;18.30;99.90;;;;;;5073000;28;20949;-55
2022/08/29 03:37:20;;;;;;;8.90;7.10;;;18.30;99.90;;;;;;5073150;28;20870;-56
2022/08/29 03:39:47;;;;;;;7.37;6.43;;;18.30;99.90;;;;;;5073468;28;20444;-56
2022/08/29 03:42:14;;;;;;;10.30;7.20;;;18.10;99.90;;;;;;5072895;28;20476;-55
2022/08/29 03:44:43;;;;;;;11.73;7.53;;;18.10;99.90;;;;;;5073847;28;20562;-55
2022/08/29 03:47:12;;;;;;;8.10;7.40;;;18.00;99.90;;;;;;5077440;28;20428;-55
2022/08/29 03:49:39;;;;;;;12.07;6.97;;;18.20;99.90;;;;;;5077154;28;20444;-55
2022/08/29 03:52:08;;;;;;;10.47;7.20;;;18.20;99.90;;;;;;5076977;28;20463;-56
2022/08/29 03:54:35;;;;;;;9.67;7.37;;;18.30;99.90;;;;;;5077323;28;20936;-55
2022/08/29 03:57:04;;;;;;;10.30;7.00;;;18.10;99.90;;;;;;5077021;28;20802;-55
2022/08/29 03:59:32;;;;;;;6.93;6.07;;;18.00;99.90;;;;;;5076920;28;20853;-55
2022/08/29 04:02:00;;;;;;;12.30;6.70;;;17.90;99.90;;;;;;5076937;28;20543;-55
2022/08/29 04:07:13;;;;;;;13.20;6.70;;;17.80;99.90;;;;;;5076886;28;20404;-55
2022/08/29 04:09:41;;;;;;;8.00;7.17;;;17.60;99.90;;;;;;5076653;28;20486;-55
2022/08/29 04:12:10;;;;;;;7.40;6.80;;;17.60;99.90;;;;;;5077150;28;20476;-56
2022/08/29 04:14:37;;;;;;;10.10;6.40;;;18.10;99.90;;;;;;5077070;28;20452;-55
2022/08/29 04:17:09;;;;;;;10.77;6.80;;;18.40;99.90;;;;;;5076874;28;20447;-55
2022/08/29 04:19:36;;;;;;;7.10;6.33;;;18.60;99.90;;;;;;5076546;28;20460;-55
2022/08/29 04:22:05;;;;;;;7.37;6.67;;;18.90;99.90;;;;;;5076845;28;20464;-55
2022/08/29 04:24:32;;;;;;;7.27;6.07;;;18.80;99.90;;;;;;5076561;28;20528;-55
2022/08/29 04:27:00;;;;;;;6.90;6.20;;;18.40;99.90;;;;;;5076656;28;20450;-56
2022/08/29 04:29:28;;;;;;;6.87;5.73;;;18.20;99.90;;;;;;5076446;28;20451;-55
2022/08/29 04:31:55;;;;;;;6.83;5.97;;;18.00;99.90;;;;;;5076504;28;20472;-55
2022/08/29 04:34:24;;;;;;;9.87;6.80;;;17.90;99.90;;;;;;5076345;28;20498;-55
2022/08/29 04:36:51;;;;;;;9.40;7.00;;;17.80;99.90;;;;;;5076310;28;20440;-55
2022/08/29 04:39:18;;;;;;;9.43;6.40;;;17.60;99.90;;;;;;5076392;28;20817;-55
2022/08/29 04:41:45;;;;;;;8.13;6.50;;;17.60;99.90;;;;;;5075932;28;20562;-55
2022/08/29 04:44:13;;;;;;;7.80;7.00;;;17.70;99.90;;;;;;5076053;28;20957;-55
2022/08/29 04:46:40;;;;;;;9.27;6.37;;;17.80;99.90;;;;;;5074709;28;20553;-55
2022/08/29 04:49:08;;;;;;;6.40;5.47;;;17.90;99.90;;;;;;5076181;28;20535;-55
2022/08/29 04:51:36;;;;;;;7.90;6.27;;;17.70;99.90;;;;;;5075920;28;20475;-55
2022/08/29 04:54:05;;;;;;;9.93;6.80;;;17.80;99.90;;;;;;5076239;28;20467;-55
2022/08/29 04:56:34;;;;;;;6.27;5.70;;;17.70;99.90;;;;;;5075079;28;20923;-56
2022/08/29 04:59:01;;;;;;;6.53;5.90;;;17.70;99.90;;;;;;5076011;28;20452;-55
2022/08/29 05:01:28;;;;;;;7.23;6.00;;;17.80;99.90;;;;;;5076092;28;20556;-55
2022/08/29 05:03:56;;;;;;;9.63;6.33;;;17.90;99.90;;;;;;5075776;28;20471;-55
2022/08/29 05:06:25;;;;;;;10.90;6.03;;;18.10;99.90;;;;;;5075875;28;20503;-56
2022/08/29 05:08:53;;;;;;;10.17;6.83;;;18.20;99.90;;;;;;5075721;28;20757;-55
2022/08/29 05:11:21;;;;;;;7.80;6.60;;;18.40;99.90;;;;;;5075579;28;20566;-55
2022/08/29 05:13:48;;;;;;;8.70;5.83;;;18.60;99.90;;;;;;5075391;28;20890;-56
2022/08/29 05:16:17;;;;;;;11.13;6.80;;;18.60;99.90;;;;;;5075641;28;20468;-55
2022/08/29 05:18:46;;;;;;;7.10;5.97;;;18.40;99.90;;;;;;5075764;28;20476;-56
2022/08/29 05:21:14;;;;;;;11.67;7.13;;;18.40;99.90;;;;;;5075497;28;20491;-55
2022/08/29 05:23:41;;;;;;;7.40;6.23;;;18.20;99.90;;;;;;5075727;28;20456;-55
2022/08/29 05:26:09;;;;;;;9.50;8.60;;;18.10;99.90;;;;;;5075662;28;20832;-55
2022/08/29 05:28:37;;;;;;;8.30;7.17;;;17.90;99.90;;;;;;5075134;28;20484;-55
2022/08/29 05:31:04;;;;;;;7.37;6.63;;;17.80;99.90;;;;;;5074979;28;20471;-56
2022/08/29 05:33:32;;;;;;;10.43;6.73;;;17.70;99.90;;;;;;5075159;28;20915;-56
2022/08/29 05:35:59;;;;;;;8.43;6.80;;;17.80;99.90;;;;;;5075428;28;20478;-55
2022/08/29 05:38:26;;;;;;;6.87;5.50;;;18.20;99.90;;;;;;5075303;28;20455;-55
2022/08/29 05:40:53;;;;;;;9.20;6.00;;;18.40;99.90;;;;;;5074951;28;20460;-55
2022/08/29 05:43:22;;;;;;;10.77;6.33;;;18.50;99.90;;;;;;5074952;28;20802;-56
2022/08/29 05:45:49;;;;;;;11.30;6.40;;;18.70;99.90;;;;;;5074449;28;20579;-55
2022/08/29 05:48:17;;;;;;;15.17;6.00;;;19.00;99.90;;;;;;5075000;28;20475;-55
2022/08/29 05:50:44;;;;;;;6.70;6.00;;;19.30;99.90;;;;;;5074931;28;20471;-55
2022/08/29 05:53:15;;;;;;;10.93;7.10;;;19.40;99.90;;;;;;5074708;28;20460;-56
2022/08/29 05:55:44;;;;;;;7.47;6.77;;;19.20;99.90;;;;;;5075224;28;20451;-55
2022/08/29 05:58:12;;;;;;;9.20;7.67;;;19.10;99.90;;;;;;5074472;28;20445;-55
2022/08/29 06:00:42;;;;;;;11.40;7.53;;;19.10;99.90;;;;;;5074296;28;20912;-55
2022/08/29 06:03:09;;;;;;;10.20;8.30;;;18.90;99.90;;;;;;5074209;28;20452;-55
2022/08/29 06:05:37;;;;;;;10.70;7.83;;;18.80;99.90;;;;;;5074260;28;20476;-56
2022/08/29 06:08:05;;;;;;;11.73;8.67;;;18.50;99.90;;;;;;5073579;28;20873;-55
2022/08/29 06:10:32;;;;;;;8.37;7.40;;;18.30;99.90;;;;;;5074181;28;20829;-55
2022/08/29 06:13:00;;;;;;;10.03;8.93;;;18.40;99.90;;;;;;5074685;28;20531;-55
2022/08/29 06:15:28;;;;;;;11.87;10.10;;;18.50;99.90;;;;;;5074585;28;20444;-55
2022/08/29 06:17:57;;;;;;;13.53;10.13;;;18.50;99.90;;;;;;5074204;28;20855;-55
2022/08/29 06:20:24;;;;;;;9.97;8.97;;;18.50;99.90;;;;;;5074107;28;20472;-55
2022/08/29 06:22:51;;;;;;;11.70;9.97;;;18.50;99.90;;;;;;5074297;28;20535;-55
2022/08/29 06:25:18;;;;;;;13.43;9.67;;;18.50;99.90;;;;;;5073859;28;20539;-55
2022/08/29 06:27:46;;;;;;;9.90;8.90;;;18.40;99.90;;;;;;5074294;28;20455;-55
2022/08/29 06:30:13;;;;;;;12.50;10.40;;;18.40;99.90;;;;;;5074049;28;20487;-55
2022/08/29 06:32:40;;;;;;;12.50;9.27;;;18.40;99.90;;;;;;5073933;28;20452;-55
2022/08/29 06:35:09;;;;;;;13.70;9.07;;;18.40;99.90;;;;;;5073972;28;20487;-56
2022/08/29 06:37:36;;;;;;;13.80;9.60;;;18.40;99.90;;;;;;5074505;28;20452;-55
2022/08/29 06:40:04;;;;;;;10.60;9.30;;;18.30;99.90;;;;;;5073878;28;20448;-55
2022/08/29 06:42:32;;;;;;;10.33;9.43;;;18.70;99.90;;;;;;5073403;28;20476;-55
2022/08/29 06:44:59;;;;;;;11.33;10.10;;;18.80;99.90;;;;;;5074112;28;20458;-56
2022/08/29 06:47:26;;;;;;;10.50;9.50;;;19.30;99.90;;;;;;5073211;28;20499;-55
2022/08/29 06:49:53;;;;;;;7.80;7.07;;;19.10;99.90;;;;;;5073714;28;20499;-55
2022/08/29 06:52:22;;;;;;;10.47;8.00;;;19.00;99.90;;;;;;5073718;28;20470;-56
2022/08/29 06:54:49;;;;;;;10.00;8.60;;;;;;;;;;5073388;28;20449;-56
2022/08/29 06:57:17;;;;;;;13.73;8.87;;;19.40;99.90;;;;;;5073618;28;20436;-55
2022/08/29 06:59:44;;;;;;;12.07;10.43;;;19.90;99.90;;;;;;5073601;28;20433;-55
2022/08/29 07:02:11;;;;;;;10.20;9.13;;;19.90;99.90;;;;;;5073590;28;20496;-56
2022/08/29 07:04:38;;;;;;;10.13;9.00;;;19.70;99.90;;;;;;5073070;28;20967;-56
2022/08/29 07:07:05;;;;;;;9.40;8.20;;;19.60;99.90;;;;;;5073434;28;20480;-55
2022/08/29 07:09:34;;;;;;;9.50;8.60;;;19.80;99.90;;;;;;5073146;28;20476;-55
2022/08/29 07:12:01;;;;;;;9.80;7.40;;;19.90;99.90;;;;;;5073291;28;20472;-56
2022/08/29 07:14:28;;;;;;;20.63;10.37;;;20.30;99.90;;;;;;5073420;28;20484;-56
2022/08/29 07:16:56;;;;;;;13.07;9.10;;;20.20;99.90;;;;;;5073448;28;20475;-56
2022/08/29 07:19:23;;;;;;;13.80;9.53;;;20.10;99.90;;;;;;5072738;28;20463;-55
2022/08/29 07:21:52;;;;;;;11.77;9.37;;;20.10;99.90;;;;;;5073037;28;20560;-56
2022/08/29 07:24:19;;;;;;;17.40;10.20;;;19.90;99.90;;;;;;5073144;28;20523;-55
2022/08/29 07:26:48;;;;;;;12.10;8.20;;;19.80;99.90;;;;;;5072772;28;20484;-56
2022/08/29 07:29:17;;;;;;;12.80;8.47;;;19.90;99.90;;;;;;5073286;28;20480;-55
2022/08/29 07:31:46;;;;;;;13.30;7.83;;;19.90;99.90;;;;;;5072836;28;20546;-57
2022/08/29 07:34:13;;;;;;;6.90;6.23;;;20.20;99.90;;;;;;5072563;28;20452;-56
2022/08/29 07:36:40;;;;;;;10.30;8.40;;;20.40;99.90;;;;;;5072606;28;20441;-56
2022/08/29 07:39:10;;;;;;;10.03;8.33;;;20.60;99.90;;;;;;5073176;28;20531;-56
2022/08/29 07:41:39;;;;;;;10.27;8.87;;;20.60;99.90;;;;;;5072987;28;20504;-56
2022/08/29 07:44:08;;;;;;;13.63;9.47;;;20.70;99.90;;;;;;5072869;28;20498;-55
2022/08/29 07:46:35;;;;;;;9.53;8.50;;;20.50;99.90;;;;;;5072526;28;20895;-55
2022/08/29 07:49:04;;;;;;;8.00;7.13;;;20.50;99.90;;;;;;5073076;28;20444;-55
2022/08/29 07:51:31;;;;;;;10.77;8.53;;;20.60;99.90;;;;;;5072731;28;20483;-56
2022/08/29 07:53:58;;;;;;;8.00;7.20;;;20.80;99.90;;;;;;5072722;28;20428;-55
2022/08/29 07:56:29;;;;;;;9.90;7.70;;;20.90;99.90;;;;;;5072548;28;20474;-55
2022/08/29 07:58:57;;;;;;;12.23;8.70;;;21.00;99.90;;;;;;5072862;28;20432;-55
2022/08/29 08:01:26;;;;;;;13.57;9.33;;;20.90;99.90;;;;;;5072277;28;20551;-55
2022/08/29 08:03:54;;;;;;;10.13;9.07;;;20.90;99.90;;;;;;5072758;28;20454;-55
2022/08/29 08:06:23;;;;;;;8.07;7.37;;;20.80;99.90;;;;;;5072445;28;20986;-55
2022/08/29 08:08:51;;;;;;;11.53;8.60;;;20.90;99.90;;;;;;5072432;28;20943;-55
2022/08/29 08:11:19;;;;;;;12.63;9.33;;;20.90;99.90;;;;;;5072929;28;20566;-55
2022/08/29 08:13:47;;;;;;;8.63;7.83;;;21.00;99.90;;;;;;5072771;28;20545;-55
2022/08/29 08:16:17;;;;;;;11.03;8.30;;;21.20;99.90;;;;;;5072391;28;20476;-55
2022/08/29 08:18:46;;;;;;;8.63;7.83;;;21.40;99.90;;;;;;5072656;28;20451;-55
2022/08/29 08:21:14;;;;;;;13.00;7.40;;;21.70;99.90;;;;;;5072758;28;20833;-55
2022/08/29 08:23:42;;;;;;;8.30;6.53;;;21.90;99.90;;;;;;5072238;28;20462;-55
2022/08/29 08:26:11;;;;;;;8.93;7.30;;;22.00;99.90;;;;;;5072501;28;20486;-56
2022/08/29 08:28:39;;;;;;;11.30;7.47;;;22.30;99.90;;;;;;5072747;28;20456;-57
2022/08/29 08:31:08;;;;;;;8.50;6.30;;;22.30;99.90;;;;;;5072262;28;20550;-56
2022/08/29 08:33:37;;;;;;;9.87;7.90;;;22.50;99.90;;;;;;5075768;28;20448;-55
2022/08/29 08:36:14;;;;;;;9.83;8.63;;;23.10;99.90;;;;;;5076035;28;20448;-55
2022/08/29 08:38:42;;;;;;;13.63;8.07;;;23.90;99.90;;;;;;5076140;28;20771;-55
2022/08/29 08:41:20;;;;;;;10.07;8.70;;;24.40;99.90;;;;;;5076138;28;20472;-55
2022/08/29 08:43:52;;;;;;;9.23;6.80;;;;;;;;;;5075685;28;20442;-55
2022/08/29 08:46:22;;;;;;;10.33;9.23;;;25.50;99.90;;;;;;5075570;28;20484;-55
2022/08/29 08:48:52;;;;;;;11.57;8.90;;;25.90;99.90;;;;;;5075800;28;20433;-56
2022/08/29 08:51:24;;;;;;;9.13;7.87;;;26.40;99.90;;;;;;5075851;28;20452;-57
2022/08/29 08:53:57;;;;;;;8.90;7.57;;;26.70;99.90;;;;;;5075620;28;20998;-55
2022/08/29 08:56:32;;;;;;;9.80;8.00;;;26.10;99.90;;;;;;5075948;28;20409;-55
2022/08/29 08:59:07;;;;;;;11.77;7.40;;;25.90;99.90;;;;;;5075823;28;20431;-55
2022/08/29 09:01:39;;;;;;;9.20;7.53;;;26.30;99.90;;;;;;5076038;28;20546;-55
2022/08/29 09:04:35;;;;;;;7.97;7.17;;;26.70;99.90;;;;;;5075706;28;20429;-55
2022/08/29 09:07:13;;;;;;;7.53;6.20;;;26.90;99.90;;;;;;5072892;28;20518;-55
2022/08/29 09:09:55;;;;;;;8.20;6.43;;;27.20;99.90;;;;;;5075371;28;20425;-55
2022/08/29 09:12:32;;;;;;;9.50;8.20;;;27.70;99.90;;;;;;5075818;28;20479;-56
2022/08/29 09:15:07;;;;;;;10.83;8.10;;;28.00;99.90;;;;;;5075476;28;20483;-56
2022/08/29 09:17:41;;;;;;;11.00;6.53;;;28.40;99.90;;;;;;5075506;28;20436;-56
2022/08/29 09:20:12;;;;;;;10.43;6.50;;;28.30;98.80;;;;;;5075299;28;20435;-55
2022/08/29 09:22:44;;;;;;;7.07;6.33;;;28.10;99.80;;;;;;5075581;28;20440;-56
2022/08/29 09:25:13;;;;;;;8.70;7.77;;;28.50;98.70;;;;;;5075559;28;20512;-56
2022/08/29 09:27:40;;;;;;;8.50;7.20;;;28.40;99.40;;;;;;5075082;28;20567;-56
2022/08/29 09:30:11;;;;;;;8.27;6.50;;;29.00;98.70;;;;;;5075462;28;20444;-56
2022/08/29 09:33:00;;;;;;;8.67;6.90;;;29.40;97.70;;;;;;5075361;28;20544;-56
2022/08/29 09:35:33;;;;;;;9.00;7.43;;;28.40;97.40;;;;;;5075256;28;20508;-56
2022/08/29 09:38:04;;;;;;;7.20;6.60;;;29.00;98.20;;;;;;5074969;28;20908;-55
2022/08/29 09:40:59;;;;;;;7.50;6.10;;;29.20;98.40;;;;;;5074748;28;20863;-55
2022/08/29 09:43:47;;;;;;;6.77;6.10;;;29.30;97.50;;;;;;5039376;28;20540;-55
2022/08/29 09:46:19;;;;;;;6.47;5.87;;;28.90;96.90;;;;;;5074628;28;20476;-55
2022/08/29 09:48:49;;;;;;;7.03;5.13;;;28.90;96.90;;;;;;5074783;28;20429;-55
2022/08/29 09:51:23;;;;;;;8.37;6.37;;;;;;;;;;5075050;28;20801;-56
2022/08/29 09:53:53;;;;;;;9.13;5.80;;;29.90;99.90;;;;;;5074935;28;20452;-56
2022/08/29 09:56:23;;;;;;;6.30;5.70;;;30.40;95.10;;;;;;5075016;28;20436;-55
2022/08/29 09:59:00;;;;;;;10.93;6.57;;;30.40;94.70;;;;;;5074697;28;20408;-56
2022/08/29 10:01:28;;;;;;;7.47;6.77;;;;;;;;;;5074894;28;20475;-56
2022/08/29 10:03:59;;;;;;;7.67;5.87;;;30.10;94.30;;;;;;5074482;28;20527;-56
2022/08/29 10:06:30;;;;;;;10.20;6.80;;;30.10;94.30;;;;;;5074209;28;20439;-56
2022/08/29 10:09:02;;;;;;;9.60;6.40;;;29.80;92.90;;;;;;5074638;28;20421;-56
2022/08/29 10:11:37;;;;;;;7.67;6.70;;;29.20;93.00;;;;;;5074762;28;20472;-57
2022/08/29 10:14:08;;;;;;;7.47;6.70;;;29.00;94.60;;;;;;5074678;28;20428;-56
2022/08/29 10:16:47;;;;;;;6.57;5.70;;;29.30;95.10;;;;;;5074249;28;20892;-56
2022/08/29 10:19:18;;;;;;;8.87;7.00;;;29.90;93.60;;;;;;5074342;28;20425;-56
2022/08/29 10:21:55;;;;;;;6.83;6.13;;;30.20;93.00;;;;;;5074197;28;20468;-56
2022/08/29 10:24:40;;;;;;;6.87;6.27;;;30.40;91.70;;;;;;5074184;28;20868;-57
2022/08/29 10:27:19;;;;;;;6.90;6.30;;;30.50;91.70;;;;;;5073981;28;20475;-56
2022/08/29 10:30:01;;;;;;;6.27;5.67;;;30.30;92.50;;;;;;5074158;28;20439;-56
2022/08/29 10:32:51;;;;;;;7.07;6.30;;;30.80;92.40;;;;;;5074214;28;20823;-56
2022/08/29 10:35:29;;;;;;;6.40;5.80;;;30.40;91.50;;;;;;5074089;28;20433;-57
2022/08/29 10:37:59;;;;;;;7.10;6.10;;;30.60;92.30;;;;;;5074202;28;20425;-56
2022/08/29 10:40:37;;;;;;;10.33;5.83;;;30.60;91.00;;;;;;5073522;28;20432;-54
2022/08/29 10:43:19;;;;;;;8.17;6.90;;;30.70;90.90;;;;;;5073945;28;20785;-55
2022/08/29 10:46:09;;;;;;;5.93;5.33;;;30.90;90.30;;;;;;5073585;28;20488;-55
2022/08/29 10:48:39;;;;;;;6.47;5.60;;;30.90;88.70;;;;;;5073865;28;20551;-55
2022/08/29 10:51:21;;;;;;;6.10;5.50;;;30.20;89.70;;;;;;5073410;28;20504;-55
2022/08/29 10:53:54;;;;;;;10.43;6.20;;;30.70;90.00;;;;;;5073254;28;20920;-55
2022/08/29 10:56:28;;;;;;;5.73;5.17;;;30.70;89.90;;;;;;5073421;28;20431;-55
2022/08/29 10:59:07;;;;;;;5.47;4.93;;;30.80;91.10;;;;;;5073588;28;20432;-55
2022/08/29 11:01:39;;;;;;;8.17;5.10;;;31.20;88.80;;;;;;5073496;28;20464;-55
2022/08/29 11:04:16;;;;;;;6.43;5.83;;;31.30;86.60;;;;;;5073084;28;20803;-55
2022/08/29 11:06:50;;;;;;;7.00;5.30;;;30.70;87.00;;;;;;5073280;28;20548;-55
2022/08/29 11:09:22;;;;;;;5.47;4.97;;;30.30;87.90;;;;;;5073393;28;20490;-55
2022/08/29 11:12:02;;;;;;;7.97;5.07;;;30.50;88.80;;;;;;5073510;28;20558;-55
2022/08/29 11:14:35;;;;;;;6.73;5.50;;;30.50;88.00;;;;;;5073591;28;20777;-55
2022/08/29 11:17:05;;;;;;;6.37;4.60;;;30.60;86.20;;;;;;5073323;28;20749;-55
2022/08/29 11:19:52;;;;;;;6.23;5.33;;;30.80;86.50;;;;;;5073191;28;20891;-55
2022/08/29 11:22:23;;;;;;;4.63;4.10;;;31.30;84.20;;;;;;5072965;28;20467;-55
2022/08/29 11:25:04;;;;;;;7.20;4.90;;;31.10;83.00;;;;;;5073364;28;20463;-55
2022/08/29 11:27:43;;;;;;;10.23;5.47;;;31.00;84.70;;;;;;5073063;28;20490;-55
2022/08/29 11:30:16;;;;;;;10.20;5.37;;;30.60;83.30;;;;;;5073338;28;20433;-55
2022/08/29 11:32:52;;;;;;;9.43;5.73;;;30.30;83.30;;;;;;5073096;28;20792;-55
2022/08/29 11:35:24;;;;;;;6.00;5.00;;;30.20;84.80;;;;;;5072735;28;20995;-55
2022/08/29 11:38:16;;;;;;;5.50;4.93;;;30.60;84.40;;;;;;5073266;28;20421;-55
2022/08/29 11:41:00;;;;;;;4.83;4.30;;;30.60;84.50;;;;;;5072720;28;20479;-55
2022/08/29 11:43:32;;;;;;;5.10;4.50;;;30.30;82.60;;;;;;5073053;28;20539;-55
2022/08/29 11:46:04;;;;;;;5.27;4.87;;;30.80;83.60;;;;;;5072548;28;20482;-55
2022/08/29 11:48:35;;;;;;;4.70;4.27;;;30.90;81.80;;;;;;5072910;28;20792;-55
2022/08/29 11:51:17;;;;;;;5.40;4.90;;;;;;;;;;5072732;28;20551;-56
2022/08/29 11:53:46;;;;;;;5.93;5.20;;;31.80;80.20;;;;;;5072690;28;20813;-55
2022/08/29 11:56:24;;;;;;;5.73;5.20;;;31.40;79.90;;;;;;5072539;28;20483;-55
2022/08/29 11:58:54;;;;;;;9.90;5.30;;;31.00;80.90;;;;;;5072721;28;20846;-56
2022/08/29 12:02:00;;;;;;;6.40;5.80;;;31.50;79.10;;;;;;5072660;28;20555;-56
2022/08/29 12:04:53;;;;;;;5.87;5.37;;;31.60;78.00;;;;;;5054784;28;20543;-56
2022/08/29 12:07:22;;;;;;;7.90;5.47;;;;;;;;;;5074246;28;20490;-56
2022/08/29 12:09:54;;;;;;;4.90;4.50;;;30.60;78.80;;;;;;5076590;28;20476;-55
2022/08/29 12:12:45;;;;;;;6.30;5.70;;;30.10;81.30;;;;;;5077088;28;20484;-55
2022/08/29 12:15:44;;;;;;;5.97;5.37;;;29.80;81.90;;;;;;5076656;28;20429;-56
2022/08/29 12:18:35;;;;;;;5.03;4.50;;;30.30;82.40;;;;;;5071346;28;20965;-55
2022/08/29 12:21:22;;;;;;;7.07;5.57;;;31.10;80.20;;;;;;5076345;28;20543;-56
2022/08/29 12:23:49;;;;;;;5.03;4.50;;;31.50;78.40;;;;;;5076225;28;20471;-56
2022/08/29 12:26:39;;;;;;;8.90;5.43;;;31.30;78.60;;;;;;5076731;28;20495;-55
2022/08/29 12:29:07;;;;;;;6.07;5.57;;;31.60;77.00;;;;;;5076504;28;20471;-55
2022/08/29 12:31:57;;;;;;;7.07;4.90;;;31.20;76.70;;;;;;5076329;28;20954;-58
2022/08/29 12:34:38;;;;;;;5.63;5.13;;;31.70;76.40;;;;;;5076607;28;20429;-56
2022/08/29 12:37:17;;;;;;;5.10;4.60;;;;;;;;;;5076309;28;20468;-55
2022/08/29 12:40:07;;;;;;;7.93;5.57;;;29.50;76.90;;;;;;5076156;28;20429;-55
2022/08/29 12:42:44;;;;;;;5.13;4.63;;;30.20;79.00;;;;;;5076533;28;20566;-55
2022/08/29 12:45:16;;;;;;;5.70;5.10;;;31.00;78.00;;;;;;5076029;28;20511;-55
2022/08/29 12:47:48;;;;;;;7.40;5.73;;;30.80;76.50;;;;;;5075852;28;20559;-55
2022/08/29 12:50:21;;;;;;;6.43;4.43;;;30.00;77.50;;;;;;5076043;28;20444;-56
2022/08/29 12:53:00;;;;;;;8.47;5.43;;;29.60;78.70;;;;;;5075880;28;20782;-55
2022/08/29 12:55:32;;;;;;;6.30;5.40;;;29.20;78.70;;;;;;5075781;28;20902;-55
2022/08/29 12:58:00;;;;;;;10.50;5.23;;;29.10;79.80;;;;;;5076023;28;20490;-55
2022/08/29 13:00:29;;;;;;;7.00;5.30;;;29.20;81.80;;;;;;5075581;28;21004;-55
2022/08/29 13:03:00;;;;;;;5.23;4.77;;;29.70;79.60;;;;;;5076037;28;20447;-55
2022/08/29 13:05:31;;;;;;;6.37;5.37;;;30.20;80.30;;;;;;5075350;28;20544;-56
2022/08/29 13:08:01;;;;;;;6.80;4.93;;;30.60;78.70;;;;;;5075545;28;20554;-55
2022/08/29 13:10:29;;;;;;;7.13;5.43;;;30.50;77.20;;;;;;5075250;28;20456;-55